createdAt,value
2022-09-25T00:00:49.971Z,82.15
2022-09-25T00:03:17.301Z,83.60
2022-09-25T00:05:45.992Z,76.55
2022-09-25T00:08:12.894Z,79.38
2022-09-25T00:10:47.192Z,73.43
2022-09-25T00:13:14.787Z,80.10
2022-09-25T00:15:51.602Z,78.90
2022-09-25T00:18:38.294Z,79.50
2022-09-25T00:21:05.845Z,79.60
2022-09-25T00:23:33.651Z,80.68
2022-09-25T00:26:01.522Z,80.07
2022-09-25T00:28:29.458Z,76.13
2022-09-25T00:30:56.608Z,67.43
2022-09-25T00:33:23.571Z,70.15
2022-09-25T00:35:50.435Z,74.53
2022-09-25T00:38:16.998Z,65.07
2022-09-25T00:40:43.610Z,80.38
2022-09-25T00:43:39.476Z,82.32
2022-09-25T00:46:12.005Z,73.15
2022-09-25T00:48:40.774Z,67.28
2022-09-25T00:51:07.371Z,68.00
2022-09-25T00:53:36.785Z,59.10
2022-09-25T00:56:03.422Z,60.03
2022-09-25T00:58:30.025Z,57.58
2022-09-25T01:00:56.661Z,59.33
2022-09-25T01:03:23.342Z,63.40
2022-09-25T01:05:49.959Z,53.08
2022-09-25T01:08:21.999Z,54.75
2022-09-25T01:10:48.546Z,54.75
2022-09-25T01:13:15.107Z,49.80
2022-09-25T01:16:02.360Z,45.55
2022-09-25T01:18:50.825Z,43.72
2022-09-25T01:21:33.451Z,39.75
2022-09-25T01:24:31.214Z,36.97
2022-09-25T01:27:34.782Z,45.63
2022-09-25T01:30:14.773Z,38.20
2022-09-25T01:33:07.966Z,41.30
2022-09-25T01:35:54.431Z,38.08
2022-09-25T01:38:31.971Z,42.60
2022-09-25T01:41:18.732Z,38.85
2022-09-25T01:43:48.389Z,38.67
2022-09-25T01:46:37.111Z,37.37
2022-09-25T01:49:08.338Z,36.70
2022-09-25T01:51:39.482Z,36.25
2022-09-25T01:54:09.641Z,33.83
2022-09-25T01:56:39.842Z,35.33
2022-09-25T01:59:15.960Z,33.03
2022-09-25T02:01:43.048Z,35.30
2022-09-25T02:04:16.237Z,31.80
2022-09-25T02:06:44.377Z,33.70
2022-09-25T02:09:14.535Z,33.88
2022-09-25T02:11:43.892Z,31.40
2022-09-25T02:14:22.851Z,30.77
2022-09-25T02:16:52.926Z,30.17
2022-09-25T02:19:48.444Z,36.97
2022-09-25T02:22:19.997Z,34.75
2022-09-25T02:25:07.207Z,29.48
2022-09-25T02:27:34.070Z,34.72
2022-09-25T02:30:01.382Z,31.83
2022-09-25T02:32:31.865Z,34.10
2022-09-25T02:34:59.697Z,36.03
2022-09-25T02:37:26.370Z,39.50
2022-09-25T02:39:55.710Z,37.80
2022-09-25T02:42:48.098Z,34.25
2022-09-25T02:45:41.359Z,40.58
2022-09-25T02:48:24.058Z,35.85
2022-09-25T02:51:04.268Z,35.60
2022-09-25T02:53:45.281Z,38.65
2022-09-25T02:56:31.416Z,39.97
2022-09-25T02:59:07.609Z,41.50
2022-09-25T03:01:35.208Z,41.88
2022-09-25T03:04:01.929Z,42.30
2022-09-25T03:06:28.501Z,44.08
2022-09-25T03:08:56.691Z,41.33
2022-09-25T03:11:24.077Z,42.50
2022-09-25T03:14:00.531Z,51.53
2022-09-25T03:16:48.755Z,43.50
2022-09-25T03:19:16.054Z,46.30
2022-09-25T03:21:42.722Z,49.83
2022-09-25T03:24:09.628Z,53.38
2022-09-25T03:26:36.288Z,51.10
2022-09-25T03:29:03.200Z,48.88
2022-09-25T03:31:30.084Z,55.22
2022-09-25T03:33:56.761Z,55.05
2022-09-25T03:36:24.946Z,54.17
2022-09-25T03:38:53.205Z,57.05
2022-09-25T03:41:21.847Z,59.92
2022-09-25T03:43:51.293Z,58.72
2022-09-25T03:46:39.407Z,57.28
2022-09-25T03:49:06.623Z,66.13
2022-09-25T03:51:33.664Z,62.47
2022-09-25T03:54:00.251Z,65.32
2022-09-25T03:56:27.995Z,61.75
2022-09-25T03:58:54.695Z,66.05
2022-09-25T04:01:21.909Z,72.47
2022-09-25T04:03:48.971Z,67.65
2022-09-25T04:06:19.921Z,67.82
2022-09-25T04:08:47.433Z,66.80
2022-09-25T04:11:15.466Z,66.22
2022-09-25T04:13:44.088Z,68.15
2022-09-25T04:16:10.898Z,65.50
2022-09-25T04:18:37.583Z,64.93
2022-09-25T04:21:05.781Z,69.15
2022-09-25T04:23:32.567Z,73.45
2022-09-25T04:25:59.287Z,70.72
2022-09-25T04:28:25.914Z,69.03
2022-09-25T04:30:52.585Z,76.10
2022-09-25T04:33:38.094Z,77.43
2022-09-25T04:36:05.116Z,71.65
2022-09-25T04:38:32.408Z,74.18
2022-09-25T04:41:02.739Z,72.88
2022-09-25T04:43:29.901Z,69.53
2022-09-25T04:46:00.421Z,77.20
2022-09-25T04:50:53.527Z,73.97
2022-09-25T04:53:20.494Z,79.75
2022-09-25T04:55:48.005Z,82.10
2022-09-25T04:58:14.567Z,74.30
2022-09-25T05:00:42.566Z,84.53
2022-09-25T05:03:09.213Z,77.35
2022-09-25T05:05:35.938Z,80.38
2022-09-25T05:08:02.831Z,83.43
2022-09-25T05:10:30.887Z,79.97
2022-09-25T05:12:58.800Z,82.10
2022-09-25T05:15:25.860Z,86.28
2022-09-25T05:18:03.250Z,81.88
2022-09-25T05:20:29.866Z,80.80
2022-09-25T05:22:57.212Z,81.30
2022-09-25T05:25:27.162Z,87.50
2022-09-25T05:27:55.705Z,81.95
2022-09-25T05:30:22.888Z,87.85
2022-09-25T05:32:50.367Z,84.00
2022-09-25T05:35:18.399Z,81.63
2022-09-25T05:37:44.973Z,81.82
2022-09-25T05:40:11.747Z,83.15
2022-09-25T05:42:38.475Z,85.10
2022-09-25T05:45:07.640Z,82.65
2022-09-25T05:47:34.403Z,80.57
2022-09-25T05:50:01.136Z,81.38
2022-09-25T05:52:27.745Z,83.85
2022-09-25T05:54:54.386Z,82.40
2022-09-25T05:57:21.905Z,81.45
2022-09-25T05:59:49.588Z,83.00
2022-09-25T06:02:16.632Z,84.10
2022-09-25T06:04:43.343Z,85.75
2022-09-25T06:07:10.018Z,77.75
2022-09-25T06:09:36.627Z,82.65
2022-09-25T06:12:03.393Z,83.10
2022-09-25T06:14:30.376Z,98.80
2022-09-25T06:16:59.455Z,80.85
2022-09-25T06:19:28.955Z,83.95
2022-09-25T06:24:24.475Z,83.05
2022-09-25T06:26:51.116Z,80.43
2022-09-25T06:29:17.775Z,81.90
2022-09-25T06:31:44.458Z,76.18
2022-09-25T06:34:11.819Z,75.57
2022-09-25T06:36:38.942Z,72.05
2022-09-25T06:39:05.555Z,74.15
2022-09-25T06:41:32.486Z,74.45
2022-09-25T06:44:00.055Z,70.00
2022-09-25T06:46:26.786Z,79.00
2022-09-25T06:48:57.788Z,77.05
2022-09-25T06:51:24.919Z,81.70
2022-09-25T06:53:54.765Z,80.38
2022-09-25T06:56:21.479Z,70.68
2022-09-25T06:58:48.128Z,81.32
2022-09-25T07:01:14.800Z,74.65
2022-09-25T07:03:47.631Z,77.78
2022-09-25T07:06:26.463Z,73.00
2022-09-25T07:08:53.230Z,70.80
2022-09-25T07:11:24.935Z,65.80
2022-09-25T07:13:52.318Z,67.97
2022-09-25T07:16:19.637Z,70.30
2022-09-25T07:18:46.655Z,65.75
2022-09-25T07:21:17.706Z,65.97
2022-09-25T07:23:44.383Z,68.88
2022-09-25T07:26:25.100Z,69.38
2022-09-25T07:28:55.620Z,60.25
2022-09-25T07:33:49.941Z,64.30
2022-09-25T07:36:17.133Z,66.72
2022-09-25T07:38:43.878Z,61.65
2022-09-25T07:41:11.129Z,65.75
2022-09-25T07:43:38.632Z,55.55
2022-09-25T07:46:06.053Z,60.75
2022-09-25T07:48:32.702Z,63.22
2022-09-25T07:51:06.781Z,61.03
2022-09-25T07:53:33.394Z,62.25
2022-09-25T07:56:05.292Z,60.25
2022-09-25T07:58:33.030Z,64.97
2022-09-25T08:01:00.380Z,60.13
2022-09-25T08:03:27.432Z,59.53
2022-09-25T08:06:01.019Z,60.80
2022-09-25T08:08:28.188Z,63.13
2022-09-25T08:11:11.720Z,59.42
2022-09-25T08:13:38.667Z,58.55
2022-09-25T08:16:06.430Z,58.92
2022-09-25T08:18:33.365Z,55.40
2022-09-25T08:21:06.191Z,58.33
2022-09-25T08:23:32.790Z,56.88
2022-09-25T08:25:59.635Z,59.15
2022-09-25T08:28:26.362Z,55.65
2022-09-25T08:30:54.198Z,55.63
2022-09-25T08:33:20.871Z,54.17
2022-09-25T08:36:00.819Z,60.95
2022-09-25T08:38:28.199Z,57.65
2022-09-25T08:41:21.015Z,56.80
2022-09-25T08:44:21.687Z,51.00
2022-09-25T08:50:10.776Z,49.05
2022-09-25T08:52:37.942Z,45.35
2022-09-25T08:55:08.639Z,44.70
2022-09-25T08:57:45.102Z,43.22
2022-09-25T09:00:22.998Z,44.10
2022-09-25T09:02:57.556Z,42.90
2022-09-25T09:05:35.139Z,41.80
2022-09-25T09:08:06.183Z,43.10
2022-09-25T09:10:32.795Z,35.22
2022-09-25T09:13:26.513Z,40.10
2022-09-25T09:16:15.721Z,38.92
2022-09-25T09:18:42.412Z,43.90
2022-09-25T09:21:27.627Z,37.30
2022-09-25T09:24:08.085Z,36.28
2022-09-25T09:29:29.043Z,38.85
2022-09-25T09:31:59.504Z,34.50
2022-09-25T09:37:54.355Z,34.22
2022-09-25T09:40:51.689Z,33.17
2022-09-25T09:43:30.754Z,33.15
2022-09-25T09:46:08.312Z,30.35
2022-09-25T09:48:36.868Z,23.88
2022-09-25T09:51:08.725Z,30.52
2022-09-25T09:53:51.908Z,23.63
2022-09-25T09:56:25.948Z,24.27
2022-09-25T09:58:56.977Z,23.92
2022-09-25T10:01:42.132Z,22.10
2022-09-25T10:04:19.783Z,24.23
2022-09-25T10:06:58.719Z,19.63
2022-09-25T10:09:27.029Z,21.80
2022-09-25T10:12:00.549Z,19.50
2022-09-25T10:14:31.279Z,21.75
2022-09-25T10:16:58.110Z,18.40
2022-09-25T10:19:25.428Z,19.65
2022-09-25T10:21:53.389Z,18.08
2022-09-25T10:24:46.919Z,28.08
2022-09-25T10:27:36.528Z,18.42
2022-09-25T10:30:06.556Z,14.68
2022-09-25T10:32:44.900Z,16.50
2022-09-25T10:35:37.419Z,11.77
2022-09-25T10:38:04.485Z,15.48
2022-09-25T10:40:35.974Z,14.98
2022-09-25T10:43:29.160Z,17.23
2022-09-25T10:46:13.010Z,13.35
2022-09-25T10:48:58.199Z,9.32
2022-09-25T10:51:24.962Z,12.13
2022-09-25T10:54:12.618Z,11.18
2022-09-25T10:56:39.263Z,9.35
2022-09-25T10:59:24.961Z,15.88
2022-09-25T11:01:53.550Z,13.60
2022-09-25T11:04:28.273Z,11.52
2022-09-25T11:07:00.338Z,12.23
2022-09-25T11:09:32.256Z,12.18
2022-09-25T11:12:13.968Z,12.65
2022-09-25T11:14:46.603Z,14.30
2022-09-25T11:17:39.720Z,9.82
2022-09-25T11:20:16.372Z,9.45
2022-09-25T11:22:46.556Z,14.95
2022-09-25T11:25:24.646Z,18.27
2022-09-25T11:27:56.620Z,15.15
2022-09-25T11:30:23.838Z,10.27
2022-09-25T11:33:28.249Z,12.13
2022-09-25T11:36:08.152Z,12.45
2022-09-25T11:38:58.671Z,8.68
2022-09-25T11:44:31.812Z,13.43
2022-09-25T11:47:06.883Z,10.65
2022-09-25T11:49:38.559Z,9.73
2022-09-25T11:52:39.942Z,13.63
2022-09-25T11:55:15.435Z,8.50
2022-09-25T11:57:51.262Z,11.07
2022-09-25T12:00:31.356Z,11.13
2022-09-25T12:03:33.953Z,8.75
2022-09-25T12:06:27.242Z,9.45
2022-09-25T12:09:43.278Z,13.98
2022-09-25T12:12:32.234Z,10.88
2022-09-25T12:15:20.919Z,11.52
2022-09-25T12:18:07.600Z,10.90
2022-09-25T12:20:40.915Z,12.15
2022-09-25T12:23:25.350Z,10.88
2022-09-25T12:26:11.207Z,10.98
2022-09-25T12:28:54.623Z,9.20
2022-09-25T12:31:27.130Z,12.77
2022-09-25T12:34:06.140Z,10.35
2022-09-25T12:36:39.586Z,7.97
2022-09-25T12:39:40.376Z,8.23
2022-09-25T12:42:12.110Z,8.57
2022-09-25T12:44:50.177Z,13.63
2022-09-25T12:47:33.283Z,12.20
2022-09-25T12:50:14.963Z,7.00
2022-09-25T12:52:53.543Z,8.35
2022-09-25T12:55:27.543Z,8.43
2022-09-25T12:58:34.193Z,7.30
2022-09-25T13:01:26.609Z,10.65
2022-09-25T13:04:05.344Z,12.90
2022-09-25T13:06:35.704Z,10.50
2022-09-25T13:09:44.937Z,9.07
2022-09-25T13:12:18.836Z,10.60
2022-09-25T13:15:00.196Z,7.75
2022-09-25T13:17:26.958Z,13.43
2022-09-25T13:19:53.648Z,6.40
2022-09-25T13:22:24.937Z,11.88
2022-09-25T13:25:01.933Z,9.27
2022-09-25T13:27:35.315Z,6.57
2022-09-25T13:30:05.130Z,11.82
2022-09-25T13:32:34.696Z,7.32
2022-09-25T13:35:04.580Z,9.87
2022-09-25T13:37:35.993Z,6.57
2022-09-25T13:40:35.823Z,10.38
2022-09-25T13:43:20.839Z,10.13
2022-09-25T13:45:48.698Z,8.45
2022-09-25T13:48:30.865Z,11.13
2022-09-25T13:51:22.287Z,15.73
2022-09-25T13:54:05.304Z,12.35
2022-09-25T13:56:41.280Z,7.70
2022-09-25T13:59:12.294Z,10.70
2022-09-25T14:01:46.157Z,11.48
2022-09-25T14:04:15.874Z,12.27
2022-09-25T14:06:44.538Z,8.73
2022-09-25T14:09:12.794Z,17.25
2022-09-25T14:11:40.786Z,10.82
2022-09-25T14:14:14.231Z,9.10
2022-09-25T14:16:46.526Z,6.97
2022-09-25T14:19:20.321Z,12.10
2022-09-25T14:21:48.063Z,9.65
2022-09-25T14:24:23.397Z,10.93
2022-09-25T14:26:52.074Z,10.35
2022-09-25T14:29:26.118Z,8.85
2022-09-25T14:32:25.845Z,7.97
2022-09-25T14:35:16.582Z,10.25
2022-09-25T14:38:07.368Z,7.38
2022-09-25T14:40:40.884Z,12.40
2022-09-25T14:43:25.601Z,7.95
2022-09-25T14:46:15.033Z,7.38
2022-09-25T14:48:51.379Z,5.47
2022-09-25T14:51:54.227Z,8.68
2022-09-25T14:54:22.990Z,8.30
2022-09-25T14:56:52.919Z,6.65
2022-09-25T14:59:33.445Z,7.47
2022-09-25T15:04:32.204Z,4.85
2022-09-25T15:07:00.115Z,4.53
2022-09-25T15:09:47.196Z,5.05
2022-09-25T15:12:29.732Z,7.03
2022-09-25T15:15:21.564Z,11.68
2022-09-25T15:17:49.525Z,5.25
2022-09-25T15:20:19.580Z,7.50
2022-09-25T15:22:49.118Z,7.30
2022-09-25T15:25:26.811Z,6.23
2022-09-25T15:27:53.513Z,7.15
2022-09-25T15:30:20.291Z,4.05
2022-09-25T15:32:48.671Z,6.57
2022-09-25T15:35:25.915Z,6.25
2022-09-25T15:38:12.092Z,8.73
2022-09-25T15:40:38.932Z,8.52
2022-09-25T15:43:12.215Z,3.67
2022-09-25T15:46:01.707Z,4.60
2022-09-25T15:48:33.228Z,3.55
2022-09-25T15:51:25.619Z,3.97
2022-09-25T15:53:55.627Z,5.63
2022-09-25T15:56:29.699Z,11.15
2022-09-25T15:59:04.695Z,5.00
2022-09-25T16:01:51.338Z,5.55
2022-09-25T16:04:40.983Z,9.02
2022-09-25T16:07:26.483Z,5.25
2022-09-25T16:09:54.796Z,5.07
2022-09-25T16:12:34.895Z,3.95
2022-09-25T16:15:29.943Z,6.78
2022-09-25T16:18:02.858Z,10.00
2022-09-25T16:20:36.973Z,6.03
2022-09-25T16:23:05.288Z,8.48
2022-09-25T16:25:36.637Z,7.88
2022-09-25T16:28:08.562Z,7.50
2022-09-25T16:30:35.147Z,6.88
2022-09-25T16:33:31.862Z,6.00
2022-09-25T16:36:15.830Z,10.20
2022-09-25T16:39:02.319Z,7.32
2022-09-25T16:41:28.951Z,11.30
2022-09-25T16:44:16.184Z,6.65
2022-09-25T16:46:46.975Z,10.63
2022-09-25T16:49:13.820Z,12.07
2022-09-25T16:51:47.532Z,6.78
2022-09-25T16:54:15.612Z,10.07
2022-09-25T16:56:43.028Z,10.75
2022-09-25T16:59:21.689Z,7.32
2022-09-25T17:01:49.904Z,10.85
2022-09-25T17:04:16.766Z,6.78
2022-09-25T17:06:47.399Z,8.00
2022-09-25T17:09:15.015Z,9.48
2022-09-25T17:11:44.230Z,5.55
2022-09-25T17:14:24.812Z,12.07
2022-09-25T17:19:19.099Z,6.93
2022-09-25T17:21:51.131Z,4.30
2022-09-25T17:24:19.006Z,13.80
2022-09-25T17:26:46.216Z,8.63
2022-09-25T17:29:13.298Z,7.68
2022-09-25T17:31:40.150Z,9.18
2022-09-25T17:34:16.219Z,11.27
2022-09-25T17:36:42.871Z,7.57
2022-09-25T17:39:09.568Z,14.43
2022-09-25T17:41:36.587Z,10.85
2022-09-25T17:44:04.079Z,11.80
2022-09-25T17:46:33.926Z,9.50
2022-09-25T17:49:00.887Z,6.53
2022-09-25T17:51:28.410Z,7.80
2022-09-25T17:53:56.195Z,7.90
2022-09-25T17:56:23.800Z,13.57
2022-09-25T17:58:51.109Z,14.55
2022-09-25T18:01:22.590Z,8.10
2022-09-25T18:03:56.283Z,9.88
2022-09-25T18:06:23.346Z,10.38
2022-09-25T18:08:50.498Z,9.63
2022-09-25T18:11:17.243Z,8.57
2022-09-25T18:13:43.953Z,14.30
2022-09-25T18:16:16.817Z,11.40
2022-09-25T18:19:03.014Z,12.30
2022-09-25T18:21:48.225Z,12.05
2022-09-25T18:24:14.873Z,10.80
2022-09-25T18:26:42.652Z,10.75
2022-09-25T18:29:19.176Z,14.57
2022-09-25T18:31:46.441Z,13.25
2022-09-25T18:34:13.788Z,14.27
2022-09-25T18:36:40.376Z,12.60
2022-09-25T18:39:07.162Z,14.70
2022-09-25T18:41:40.407Z,13.57
2022-09-25T18:44:07.268Z,15.20
2022-09-25T18:46:40.230Z,12.30
2022-09-25T18:49:06.966Z,12.27
2022-09-25T18:51:34.043Z,16.65
2022-09-25T18:54:00.737Z,9.98
2022-09-25T18:56:28.153Z,16.42
2022-09-25T18:58:54.788Z,8.90
2022-09-25T19:01:21.626Z,12.27
2022-09-25T19:03:52.129Z,14.23
2022-09-25T19:06:18.922Z,20.30
2022-09-25T19:08:55.723Z,11.02
2022-09-25T19:11:26.317Z,14.35
2022-09-25T19:16:20.050Z,17.02
2022-09-25T19:18:46.884Z,17.35
2022-09-25T19:21:15.170Z,19.25
2022-09-25T19:23:46.300Z,17.40
2022-09-25T19:26:14.899Z,16.50
2022-09-25T19:28:41.534Z,13.02
2022-09-25T19:31:12.439Z,17.20
2022-09-25T19:33:39.175Z,18.52
2022-09-25T19:36:08.347Z,22.27
2022-09-25T19:38:36.465Z,12.55
2022-09-25T19:41:03.181Z,15.50
2022-09-25T19:43:33.688Z,23.13
2022-09-25T19:46:00.363Z,19.25
2022-09-25T19:48:27.008Z,19.73
2022-09-25T19:50:53.663Z,18.05
2022-09-25T19:53:20.268Z,21.20
2022-09-25T19:55:54.017Z,17.83
2022-09-25T19:58:23.644Z,16.92
2022-09-25T20:00:50.952Z,26.33
2022-09-25T20:03:18.015Z,25.30
2022-09-25T20:05:44.758Z,24.33
2022-09-25T20:08:11.458Z,19.92
2022-09-25T20:10:38.122Z,22.48
2022-09-25T20:13:05.077Z,21.02
2022-09-25T20:15:32.261Z,23.38
2022-09-25T20:17:59.402Z,22.55
2022-09-25T20:20:27.550Z,18.48
2022-09-25T20:22:54.177Z,24.70
2022-09-25T20:25:21.152Z,22.75
2022-09-25T20:27:52.065Z,27.65
2022-09-25T20:30:18.922Z,21.13
2022-09-25T20:32:45.569Z,27.10
2022-09-25T20:35:12.172Z,20.27
2022-09-25T20:37:38.894Z,13.55
2022-09-25T20:40:05.747Z,15.95
2022-09-25T20:42:33.863Z,19.02
2022-09-25T20:45:00.466Z,18.15
2022-09-25T20:47:33.522Z,12.60
2022-09-25T20:50:00.664Z,15.05
2022-09-25T20:52:27.835Z,15.27
2022-09-25T20:54:54.423Z,15.73
2022-09-25T20:57:21.011Z,16.70
2022-09-25T20:59:47.595Z,17.23
2022-09-25T21:02:14.305Z,16.30
2022-09-25T21:04:40.964Z,17.02
2022-09-25T21:07:07.565Z,18.35
2022-09-25T21:09:34.152Z,19.52
2022-09-25T21:12:05.397Z,18.13
2022-09-25T21:14:33.551Z,15.52
2022-09-25T21:17:00.289Z,59.65
2022-09-25T21:19:27.894Z,32.45
2022-09-25T21:21:54.484Z,55.72
2022-09-25T21:24:21.270Z,22.42
2022-09-25T21:26:48.085Z,16.83
2022-09-25T21:29:18.380Z,14.80
2022-09-25T21:31:49.683Z,17.88
2022-09-25T21:34:17.426Z,26.58
2022-09-25T21:36:45.434Z,23.75
2022-09-25T21:39:12.355Z,23.05
2022-09-25T21:41:39.017Z,27.33
2022-09-25T21:44:07.473Z,36.22
2022-09-25T21:46:37.656Z,47.90
2022-09-25T21:49:05.378Z,40.20
2022-09-25T21:51:36.740Z,43.17
2022-09-25T21:54:03.848Z,54.90
2022-09-25T21:56:31.362Z,37.33
2022-09-25T21:58:58.030Z,26.27
2022-09-25T22:01:28.665Z,26.10
2022-09-25T22:03:56.675Z,21.55
2022-09-25T22:06:31.912Z,32.72
2022-09-25T22:09:00.382Z,31.67
2022-09-25T22:11:27.433Z,27.63
2022-09-25T22:13:55.389Z,33.50
2022-09-25T22:16:26.939Z,49.63
2022-09-25T22:19:02.211Z,24.95
2022-09-25T22:21:30.597Z,24.52
2022-09-25T22:23:57.354Z,29.63
2022-09-25T22:26:24.019Z,25.17
2022-09-25T22:28:50.668Z,23.88
2022-09-25T22:31:21.904Z,22.30
2022-09-25T22:33:48.726Z,22.23
2022-09-25T22:36:15.321Z,21.92
2022-09-25T22:38:41.954Z,26.85
2022-09-25T22:41:10.525Z,94.95
2022-09-25T22:43:37.338Z,126.18
2022-09-25T22:46:04.494Z,58.90
2022-09-25T22:48:31.167Z,104.28
2022-09-25T22:50:58.508Z,144.43
2022-09-25T22:53:25.457Z,86.72
2022-09-25T22:55:52.068Z,22.10
2022-09-25T22:58:18.914Z,28.27
2022-09-25T23:00:51.038Z,22.60
2022-09-25T23:03:18.665Z,26.00
2022-09-25T23:05:45.455Z,26.95
2022-09-25T23:08:12.105Z,17.80
2022-09-25T23:11:02.554Z,16.70
2022-09-25T23:13:25.322Z,17.33
2022-09-25T23:15:51.884Z,19.40
2022-09-25T23:18:18.437Z,15.15
2022-09-25T23:20:44.982Z,13.77
2022-09-25T23:23:11.544Z,18.95
2022-09-25T23:25:38.101Z,11.32
2022-09-25T23:28:04.860Z,17.38
2022-09-25T23:30:32.679Z,14.63
2022-09-25T23:32:59.281Z,14.45
2022-09-25T23:35:25.824Z,11.52
2022-09-25T23:37:52.413Z,21.10
2022-09-25T23:40:19.127Z,26.52
2022-09-25T23:42:45.795Z,17.25
2022-09-25T23:45:12.332Z,38.78
2022-09-25T23:47:38.902Z,16.45
2022-09-25T23:50:05.865Z,17.75
2022-09-25T23:52:32.409Z,20.02
2022-09-25T23:54:59.268Z,17.55
2022-09-25T23:57:25.843Z,57.45
2022-09-25T23:59:52.455Z,89.95
